sensor_id;sensor_type;location;lat;lon;timestamp;P1;durP1;ratioP1;P2;durP2;ratioP2
3085;SDS011;52812;48.960;9.108;2022-08-07T00:01:26;2.80;;;1.70;;
3085;SDS011;52812;48.960;9.108;2022-08-07T00:03:51;1.83;;;1.60;;
3085;SDS011;52812;48.960;9.108;2022-08-07T00:06:17;1.90;;;1.80;;
3085;SDS011;52812;48.960;9.108;2022-08-07T00:08:43;2.67;;;1.83;;
3085;SDS011;52812;48.960;9.108;2022-08-07T00:11:08;2.00;;;1.80;;
3085;SDS011;52812;48.960;9.108;2022-08-07T00:13:34;1.87;;;1.50;;
3085;SDS011;52812;48.960;9.108;2022-08-07T00:16:01;2.20;;;1.80;;
3085;SDS011;52812;48.960;9.108;2022-08-07T00:18:28;2.73;;;1.90;;
3085;SDS011;52812;48.960;9.108;2022-08-07T00:20:58;2.30;;;1.60;;
3085;SDS011;52812;48.960;9.108;2022-08-07T00:23:26;1.93;;;1.70;;
3085;SDS011;52812;48.960;9.108;2022-08-07T00:25:52;1.77;;;1.67;;
3085;SDS011;52812;48.960;9.108;2022-08-07T00:28:18;1.67;;;1.57;;
3085;SDS011;52812;48.960;9.108;2022-08-07T00:30:44;2.43;;;1.80;;
3085;SDS011;52812;48.960;9.108;2022-08-07T00:33:09;2.40;;;1.77;;
3085;SDS011;52812;48.960;9.108;2022-08-07T00:35:35;1.73;;;1.63;;
3085;SDS011;52812;48.960;9.108;2022-08-07T00:38:01;1.70;;;1.60;;
3085;SDS011;52812;48.960;9.108;2022-08-07T00:40:27;3.53;;;1.87;;
3085;SDS011;52812;48.960;9.108;2022-08-07T00:42:53;1.97;;;1.87;;
3085;SDS011;52812;48.960;9.108;2022-08-07T00:45:19;3.20;;;2.30;;
3085;SDS011;52812;48.960;9.108;2022-08-07T00:47:46;1.90;;;1.80;;
3085;SDS011;52812;48.960;9.108;2022-08-07T00:50:12;2.20;;;2.00;;
3085;SDS011;52812;48.960;9.108;2022-08-07T00:52:37;1.90;;;1.67;;
3085;SDS011;52812;48.960;9.108;2022-08-07T00:55:03;2.00;;;1.90;;
3085;SDS011;52812;48.960;9.108;2022-08-07T00:57:29;2.40;;;2.00;;
3085;SDS011;52812;48.960;9.108;2022-08-07T00:59:56;2.20;;;2.00;;
3085;SDS011;52812;48.960;9.108;2022-08-07T01:02:23;3.00;;;2.03;;
3085;SDS011;52812;48.960;9.108;2022-08-07T01:04:49;3.00;;;2.03;;
3085;SDS011;52812;48.960;9.108;2022-08-07T01:07:15;2.23;;;2.03;;
3085;SDS011;52812;48.960;9.108;2022-08-07T01:09:42;2.70;;;2.10;;
3085;SDS011;52812;48.960;9.108;2022-08-07T01:12:08;2.20;;;2.00;;
3085;SDS011;52812;48.960;9.108;2022-08-07T01:14:34;1.70;;;1.60;;
3085;SDS011;52812;48.960;9.108;2022-08-07T01:16:59;1.80;;;1.70;;
3085;SDS011;52812;48.960;9.108;2022-08-07T01:19:26;2.50;;;2.00;;
3085;SDS011;52812;48.960;9.108;2022-08-07T01:21:53;1.90;;;1.70;;
3085;SDS011;52812;48.960;9.108;2022-08-07T01:24:20;2.93;;;1.70;;
3085;SDS011;52812;48.960;9.108;2022-08-07T01:26:46;1.60;;;1.50;;
3085;SDS011;52812;48.960;9.108;2022-08-07T01:29:15;2.10;;;1.90;;
3085;SDS011;52812;48.960;9.108;2022-08-07T01:31:41;5.10;;;1.70;;
3085;SDS011;52812;48.960;9.108;2022-08-07T01:34:06;1.97;;;1.80;;
3085;SDS011;52812;48.960;9.108;2022-08-07T01:36:32;2.70;;;1.80;;
3085;SDS011;52812;48.960;9.108;2022-08-07T01:38:58;2.27;;;1.83;;
3085;SDS011;52812;48.960;9.108;2022-08-07T01:41:24;3.57;;;1.83;;
3085;SDS011;52812;48.960;9.108;2022-08-07T01:43:51;2.53;;;1.83;;
3085;SDS011;52812;48.960;9.108;2022-08-07T01:46:18;2.10;;;1.80;;
3085;SDS011;52812;48.960;9.108;2022-08-07T01:48:45;4.33;;;2.50;;
3085;SDS011;52812;48.960;9.108;2022-08-07T01:51:13;2.20;;;1.70;;
3085;SDS011;52812;48.960;9.108;2022-08-07T01:53:43;2.10;;;1.80;;
3085;SDS011;52812;48.960;9.108;2022-08-07T01:56:13;1.70;;;1.60;;
3085;SDS011;52812;48.960;9.108;2022-08-07T01:58:41;2.33;;;1.90;;
3085;SDS011;52812;48.960;9.108;2022-08-07T02:01:19;2.87;;;1.60;;
3085;SDS011;52812;48.960;9.108;2022-08-07T02:03:50;2.03;;;1.83;;
3085;SDS011;52812;48.960;9.108;2022-08-07T02:06:22;5.83;;;2.10;;
3085;SDS011;52812;48.960;9.108;2022-08-07T02:08:51;3.73;;;1.70;;
3085;SDS011;52812;48.960;9.108;2022-08-07T02:11:18;1.80;;;1.70;;
3085;SDS011;52812;48.960;9.108;2022-08-07T02:13:44;3.23;;;1.70;;
3085;SDS011;52812;48.960;9.108;2022-08-07T02:16:11;1.70;;;1.60;;
3085;SDS011;52812;48.960;9.108;2022-08-07T02:18:40;2.03;;;1.93;;
3085;SDS011;52812;48.960;9.108;2022-08-07T02:21:08;1.80;;;1.70;;
3085;SDS011;52812;48.960;9.108;2022-08-07T02:23:34;2.37;;;1.80;;
3085;SDS011;52812;48.960;9.108;2022-08-07T02:26:02;2.17;;;1.97;;
3085;SDS011;52812;48.960;9.108;2022-08-07T02:28:30;2.10;;;1.87;;
3085;SDS011;52812;48.960;9.108;2022-08-07T02:30:58;2.30;;;1.70;;
3085;SDS011;52812;48.960;9.108;2022-08-07T02:33:26;2.47;;;1.67;;
3085;SDS011;52812;48.960;9.108;2022-08-07T02:35:53;2.47;;;1.90;;
3085;SDS011;52812;48.960;9.108;2022-08-07T02:38:21;2.17;;;1.97;;
3085;SDS011;52812;48.960;9.108;2022-08-07T02:40:51;1.90;;;1.77;;
3085;SDS011;52812;48.960;9.108;2022-08-07T02:43:17;2.00;;;1.80;;
3085;SDS011;52812;48.960;9.108;2022-08-07T02:45:43;2.03;;;1.63;;
3085;SDS011;52812;48.960;9.108;2022-08-07T02:48:11;2.13;;;1.90;;
3085;SDS011;52812;48.960;9.108;2022-08-07T02:50:38;2.00;;;1.70;;
3085;SDS011;52812;48.960;9.108;2022-08-07T02:53:07;2.13;;;1.93;;
3085;SDS011;52812;48.960;9.108;2022-08-07T02:55:37;2.37;;;2.10;;
3085;SDS011;52812;48.960;9.108;2022-08-07T02:58:13;2.10;;;2.00;;
3085;SDS011;52812;48.960;9.108;2022-08-07T03:00:42;4.00;;;2.03;;
3085;SDS011;52812;48.960;9.108;2022-08-07T03:03:09;2.23;;;2.00;;
3085;SDS011;52812;48.960;9.108;2022-08-07T03:05:36;2.10;;;1.90;;
3085;SDS011;52812;48.960;9.108;2022-08-07T03:08:03;2.20;;;2.00;;
3085;SDS011;52812;48.960;9.108;2022-08-07T03:10:30;1.97;;;1.80;;
3085;SDS011;52812;48.960;9.108;2022-08-07T03:12:56;2.13;;;1.93;;
3085;SDS011;52812;48.960;9.108;2022-08-07T03:15:22;3.20;;;1.93;;
3085;SDS011;52812;48.960;9.108;2022-08-07T03:17:48;2.10;;;1.90;;
3085;SDS011;52812;48.960;9.108;2022-08-07T03:20:15;2.30;;;2.10;;
3085;SDS011;52812;48.960;9.108;2022-08-07T03:22:41;2.77;;;2.20;;
3085;SDS011;52812;48.960;9.108;2022-08-07T03:25:09;3.20;;;2.20;;
3085;SDS011;52812;48.960;9.108;2022-08-07T03:27:35;2.33;;;2.03;;
3085;SDS011;52812;48.960;9.108;2022-08-07T03:30:01;3.00;;;2.07;;
3085;SDS011;52812;48.960;9.108;2022-08-07T03:32:30;7.37;;;2.17;;
3085;SDS011;52812;48.960;9.108;2022-08-07T03:35:01;2.17;;;1.80;;
3085;SDS011;52812;48.960;9.108;2022-08-07T03:37:29;2.00;;;1.90;;
3085;SDS011;52812;48.960;9.108;2022-08-07T03:39:57;2.10;;;1.90;;
3085;SDS011;52812;48.960;9.108;2022-08-07T03:42:23;4.07;;;2.03;;
3085;SDS011;52812;48.960;9.108;2022-08-07T03:44:49;1.90;;;1.80;;
3085;SDS011;52812;48.960;9.108;2022-08-07T03:47:16;2.13;;;1.97;;
3085;SDS011;52812;48.960;9.108;2022-08-07T03:49:42;2.17;;;1.90;;
3085;SDS011;52812;48.960;9.108;2022-08-07T03:52:09;2.10;;;1.90;;
3085;SDS011;52812;48.960;9.108;2022-08-07T03:54:36;1.93;;;1.80;;
3085;SDS011;52812;48.960;9.108;2022-08-07T03:57:02;2.30;;;2.10;;
3085;SDS011;52812;48.960;9.108;2022-08-07T03:59:29;3.37;;;2.37;;
3085;SDS011;52812;48.960;9.108;2022-08-07T04:01:58;2.43;;;2.10;;
3085;SDS011;52812;48.960;9.108;2022-08-07T04:04:25;1.90;;;1.80;;
3085;SDS011;52812;48.960;9.108;2022-08-07T04:06:51;2.10;;;1.90;;
3085;SDS011;52812;48.960;9.108;2022-08-07T04:09:17;2.13;;;1.93;;
3085;SDS011;52812;48.960;9.108;2022-08-07T04:11:44;2.67;;;1.70;;
3085;SDS011;52812;48.960;9.108;2022-08-07T04:14:10;4.13;;;1.83;;
3085;SDS011;52812;48.960;9.108;2022-08-07T04:16:36;2.47;;;1.90;;
3085;SDS011;52812;48.960;9.108;2022-08-07T04:19:02;2.10;;;1.90;;
3085;SDS011;52812;48.960;9.108;2022-08-07T04:21:29;2.00;;;1.90;;
3085;SDS011;52812;48.960;9.108;2022-08-07T04:23:55;2.90;;;1.83;;
3085;SDS011;52812;48.960;9.108;2022-08-07T04:26:22;1.93;;;1.80;;
3085;SDS011;52812;48.960;9.108;2022-08-07T04:28:48;1.97;;;1.83;;
3085;SDS011;52812;48.960;9.108;2022-08-07T04:31:13;2.30;;;2.10;;
3085;SDS011;52812;48.960;9.108;2022-08-07T04:33:40;3.37;;;2.10;;
3085;SDS011;52812;48.960;9.108;2022-08-07T04:36:06;2.30;;;2.10;;
3085;SDS011;52812;48.960;9.108;2022-08-07T04:38:33;2.77;;;2.30;;
3085;SDS011;52812;48.960;9.108;2022-08-07T04:41:00;2.80;;;2.50;;
3085;SDS011;52812;48.960;9.108;2022-08-07T04:43:29;2.40;;;2.20;;
3085;SDS011;52812;48.960;9.108;2022-08-07T04:48:33;1.90;;;1.80;;
3085;SDS011;52812;48.960;9.108;2022-08-07T04:53:45;2.53;;;2.33;;
3085;SDS011;52812;48.960;9.108;2022-08-07T04:56:19;2.50;;;2.30;;
3085;SDS011;52812;48.960;9.108;2022-08-07T04:58:51;2.50;;;2.30;;
3085;SDS011;52812;48.960;9.108;2022-08-07T05:04:09;3.10;;;2.20;;
3085;SDS011;52812;48.960;9.108;2022-08-07T05:06:45;2.23;;;2.03;;
3085;SDS011;52812;48.960;9.108;2022-08-07T05:12:15;2.37;;;2.10;;
3085;SDS011;52812;48.960;9.108;2022-08-07T05:14:46;2.57;;;2.10;;
3085;SDS011;52812;48.960;9.108;2022-08-07T05:17:16;2.37;;;2.17;;
3085;SDS011;52812;48.960;9.108;2022-08-07T05:19:46;2.60;;;2.40;;
3085;SDS011;52812;48.960;9.108;2022-08-07T05:22:14;3.20;;;1.80;;
3085;SDS011;52812;48.960;9.108;2022-08-07T05:24:41;3.60;;;2.10;;
3085;SDS011;52812;48.960;9.108;2022-08-07T05:27:11;2.57;;;1.90;;
3085;SDS011;52812;48.960;9.108;2022-08-07T05:29:39;2.70;;;2.00;;
3085;SDS011;52812;48.960;9.108;2022-08-07T05:32:07;2.00;;;1.90;;
3085;SDS011;52812;48.960;9.108;2022-08-07T05:34:35;3.63;;;1.90;;
3085;SDS011;52812;48.960;9.108;2022-08-07T05:37:02;2.10;;;1.70;;
3085;SDS011;52812;48.960;9.108;2022-08-07T05:39:28;2.37;;;1.97;;
3085;SDS011;52812;48.960;9.108;2022-08-07T05:41:55;2.03;;;1.90;;
3085;SDS011;52812;48.960;9.108;2022-08-07T05:44:21;3.63;;;1.90;;
3085;SDS011;52812;48.960;9.108;2022-08-07T05:46:47;2.10;;;1.73;;
3085;SDS011;52812;48.960;9.108;2022-08-07T05:49:14;3.90;;;1.80;;
3085;SDS011;52812;48.960;9.108;2022-08-07T05:51:41;1.83;;;1.73;;
3085;SDS011;52812;48.960;9.108;2022-08-07T05:54:08;1.90;;;1.70;;
3085;SDS011;52812;48.960;9.108;2022-08-07T05:56:34;2.17;;;1.97;;
3085;SDS011;52812;48.960;9.108;2022-08-07T05:59:02;1.80;;;1.70;;
3085;SDS011;52812;48.960;9.108;2022-08-07T06:01:29;1.73;;;1.63;;
3085;SDS011;52812;48.960;9.108;2022-08-07T06:03:56;1.50;;;1.40;;
3085;SDS011;52812;48.960;9.108;2022-08-07T06:06:23;1.40;;;1.30;;
3085;SDS011;52812;48.960;9.108;2022-08-07T06:08:50;3.30;;;1.70;;
3085;SDS011;52812;48.960;9.108;2022-08-07T06:11:18;2.23;;;1.60;;
3085;SDS011;52812;48.960;9.108;2022-08-07T06:13:44;2.90;;;1.60;;
3085;SDS011;52812;48.960;9.108;2022-08-07T06:16:10;1.50;;;1.40;;
3085;SDS011;52812;48.960;9.108;2022-08-07T06:18:38;3.73;;;1.50;;
3085;SDS011;52812;48.960;9.108;2022-08-07T06:21:04;1.70;;;1.60;;
3085;SDS011;52812;48.960;9.108;2022-08-07T06:23:31;2.40;;;1.60;;
3085;SDS011;52812;48.960;9.108;2022-08-07T06:25:57;1.57;;;1.47;;
3085;SDS011;52812;48.960;9.108;2022-08-07T06:28:24;1.70;;;1.60;;
3085;SDS011;52812;48.960;9.108;2022-08-07T06:30:49;2.33;;;1.73;;
3085;SDS011;52812;48.960;9.108;2022-08-07T06:33:15;2.90;;;1.90;;
3085;SDS011;52812;48.960;9.108;2022-08-07T06:35:42;3.23;;;1.53;;
3085;SDS011;52812;48.960;9.108;2022-08-07T06:38:08;1.70;;;1.60;;
3085;SDS011;52812;48.960;9.108;2022-08-07T06:40:34;2.00;;;1.80;;
3085;SDS011;52812;48.960;9.108;2022-08-07T06:43:04;1.73;;;1.63;;
3085;SDS011;52812;48.960;9.108;2022-08-07T06:45:32;2.20;;;1.90;;
3085;SDS011;52812;48.960;9.108;2022-08-07T06:47:58;2.10;;;1.80;;
3085;SDS011;52812;48.960;9.108;2022-08-07T06:50:25;2.37;;;2.17;;
3085;SDS011;52812;48.960;9.108;2022-08-07T06:52:52;4.23;;;2.10;;
3085;SDS011;52812;48.960;9.108;2022-08-07T06:55:22;1.87;;;1.77;;
3085;SDS011;52812;48.960;9.108;2022-08-07T06:57:50;2.00;;;1.90;;
3085;SDS011;52812;48.960;9.108;2022-08-07T07:00:17;2.50;;;2.13;;
3085;SDS011;52812;48.960;9.108;2022-08-07T07:02:43;2.60;;;2.40;;
3085;SDS011;52812;48.960;9.108;2022-08-07T07:05:11;2.60;;;2.30;;
3085;SDS011;52812;48.960;9.108;2022-08-07T07:07:37;3.37;;;2.43;;
3085;SDS011;52812;48.960;9.108;2022-08-07T07:10:03;2.57;;;2.37;;
3085;SDS011;52812;48.960;9.108;2022-08-07T07:12:30;2.67;;;2.47;;
3085;SDS011;52812;48.960;9.108;2022-08-07T07:15:19;2.60;;;2.40;;
3085;SDS011;52812;48.960;9.108;2022-08-07T07:18:02;2.77;;;2.57;;
3085;SDS011;52812;48.960;9.108;2022-08-07T07:20:33;3.17;;;2.87;;
3085;SDS011;52812;48.960;9.108;2022-08-07T07:23:02;3.23;;;2.93;;
3085;SDS011;52812;48.960;9.108;2022-08-07T07:25:29;3.20;;;2.80;;
3085;SDS011;52812;48.960;9.108;2022-08-07T07:28:01;5.90;;;3.33;;
3085;SDS011;52812;48.960;9.108;2022-08-07T07:30:37;3.03;;;2.57;;
3085;SDS011;52812;48.960;9.108;2022-08-07T07:33:07;2.90;;;2.70;;
3085;SDS011;52812;48.960;9.108;2022-08-07T07:35:35;4.63;;;2.63;;
3085;SDS011;52812;48.960;9.108;2022-08-07T07:38:03;2.90;;;2.60;;
3085;SDS011;52812;48.960;9.108;2022-08-07T07:40:30;3.57;;;2.90;;
3085;SDS011;52812;48.960;9.108;2022-08-07T07:42:58;3.00;;;2.80;;
3085;SDS011;52812;48.960;9.108;2022-08-07T07:45:27;3.13;;;2.93;;
3085;SDS011;52812;48.960;9.108;2022-08-07T07:47:54;3.90;;;2.57;;
3085;SDS011;52812;48.960;9.108;2022-08-07T07:50:22;2.80;;;2.60;;
3085;SDS011;52812;48.960;9.108;2022-08-07T07:52:48;2.50;;;2.30;;
3085;SDS011;52812;48.960;9.108;2022-08-07T07:55:16;3.80;;;2.50;;
3085;SDS011;52812;48.960;9.108;2022-08-07T07:57:43;3.30;;;2.90;;
3085;SDS011;52812;48.960;9.108;2022-08-07T08:00:12;2.80;;;2.60;;
3085;SDS011;52812;48.960;9.108;2022-08-07T08:02:38;3.13;;;2.90;;
3085;SDS011;52812;48.960;9.108;2022-08-07T08:05:06;2.80;;;2.60;;
3085;SDS011;52812;48.960;9.108;2022-08-07T08:07:33;3.27;;;2.90;;
3085;SDS011;52812;48.960;9.108;2022-08-07T08:10:02;2.70;;;2.50;;
3085;SDS011;52812;48.960;9.108;2022-08-07T08:12:30;2.80;;;2.60;;
3085;SDS011;52812;48.960;9.108;2022-08-07T08:14:57;2.80;;;2.50;;
3085;SDS011;52812;48.960;9.108;2022-08-07T08:17:24;3.10;;;2.73;;
3085;SDS011;52812;48.960;9.108;2022-08-07T08:19:52;2.43;;;2.23;;
3085;SDS011;52812;48.960;9.108;2022-08-07T08:22:23;2.87;;;2.30;;
3085;SDS011;52812;48.960;9.108;2022-08-07T08:25:08;2.80;;;2.60;;
3085;SDS011;52812;48.960;9.108;2022-08-07T08:27:55;2.60;;;2.40;;
3085;SDS011;52812;48.960;9.108;2022-08-07T08:30:23;2.70;;;2.50;;
3085;SDS011;52812;48.960;9.108;2022-08-07T08:32:55;3.50;;;2.47;;
3085;SDS011;52812;48.960;9.108;2022-08-07T08:35:24;2.30;;;2.10;;
3085;SDS011;52812;48.960;9.108;2022-08-07T08:37:55;2.30;;;1.90;;
3085;SDS011;52812;48.960;9.108;2022-08-07T08:40:25;5.40;;;2.03;;
3085;SDS011;52812;48.960;9.108;2022-08-07T08:45:39;2.37;;;2.17;;
3085;SDS011;52812;48.960;9.108;2022-08-07T08:48:12;2.20;;;2.10;;
3085;SDS011;52812;48.960;9.108;2022-08-07T08:50:55;5.27;;;2.27;;
3085;SDS011;52812;48.960;9.108;2022-08-07T08:53:32;2.10;;;2.00;;
3085;SDS011;52812;48.960;9.108;2022-08-07T08:56:13;2.40;;;1.60;;
3085;SDS011;52812;48.960;9.108;2022-08-07T08:58:55;2.00;;;1.80;;
3085;SDS011;52812;48.960;9.108;2022-08-07T09:04:08;2.80;;;1.90;;
3085;SDS011;52812;48.960;9.108;2022-08-07T09:12:45;2.10;;;1.90;;
3085;SDS011;52812;48.960;9.108;2022-08-07T09:24:09;2.00;;;1.80;;
3085;SDS011;52812;48.960;9.108;2022-08-07T09:32:34;1.83;;;1.73;;
3085;SDS011;52812;48.960;9.108;2022-08-07T09:38:21;2.60;;;1.83;;
3085;SDS011;52812;48.960;9.108;2022-08-07T09:43:59;1.93;;;1.80;;
3085;SDS011;52812;48.960;9.108;2022-08-07T09:57:51;3.83;;;1.67;;
3085;SDS011;52812;48.960;9.108;2022-08-07T10:01:23;1.63;;;1.53;;
3085;SDS011;52812;48.960;9.108;2022-08-07T10:26:14;1.63;;;1.47;;
3085;SDS011;52812;48.960;9.108;2022-08-07T10:32:06;1.70;;;1.60;;
3085;SDS011;52812;48.960;9.108;2022-08-07T10:40:17;1.50;;;1.40;;
3085;SDS011;52812;48.960;9.108;2022-08-07T10:45:23;1.60;;;1.50;;
3085;SDS011;52812;48.960;9.108;2022-08-07T10:48:12;2.87;;;1.60;;
3085;SDS011;52812;48.960;9.108;2022-08-07T10:50:59;1.70;;;1.23;;
3085;SDS011;52812;48.960;9.108;2022-08-07T10:54:03;1.50;;;1.40;;
3085;SDS011;52812;48.960;9.108;2022-08-07T10:57:02;1.50;;;1.33;;
3085;SDS011;52812;48.960;9.108;2022-08-07T11:00:10;1.30;;;1.20;;
3085;SDS011;52812;48.960;9.108;2022-08-07T11:11:14;3.80;;;1.40;;
3085;SDS011;52812;48.960;9.108;2022-08-07T11:14:27;2.33;;;1.40;;
3085;SDS011;52812;48.960;9.108;2022-08-07T11:22:15;1.60;;;1.33;;
3085;SDS011;52812;48.960;9.108;2022-08-07T11:24:52;1.40;;;1.30;;
3085;SDS011;52812;48.960;9.108;2022-08-07T11:30:20;1.40;;;1.30;;
3085;SDS011;52812;48.960;9.108;2022-08-07T11:35:19;1.50;;;1.40;;
3085;SDS011;52812;48.960;9.108;2022-08-07T11:52:18;1.40;;;1.30;;
3085;SDS011;52812;48.960;9.108;2022-08-07T11:57:52;1.33;;;1.23;;
3085;SDS011;52812;48.960;9.108;2022-08-07T12:00:33;1.60;;;1.40;;
3085;SDS011;52812;48.960;9.108;2022-08-07T12:06:27;3.00;;;1.70;;
3085;SDS011;52812;48.960;9.108;2022-08-07T12:12:03;1.60;;;1.50;;
3085;SDS011;52812;48.960;9.108;2022-08-07T12:14:35;1.53;;;1.43;;
3085;SDS011;52812;48.960;9.108;2022-08-07T12:17:11;1.40;;;1.30;;
3085;SDS011;52812;48.960;9.108;2022-08-07T12:19:44;1.40;;;1.30;;
3085;SDS011;52812;48.960;9.108;2022-08-07T12:22:22;1.93;;;1.37;;
3085;SDS011;52812;48.960;9.108;2022-08-07T12:25:02;1.97;;;1.43;;
3085;SDS011;52812;48.960;9.108;2022-08-07T12:27:51;1.47;;;1.37;;
3085;SDS011;52812;48.960;9.108;2022-08-07T12:30:24;1.40;;;1.30;;
3085;SDS011;52812;48.960;9.108;2022-08-07T12:32:59;1.50;;;1.40;;
3085;SDS011;52812;48.960;9.108;2022-08-07T12:35:30;3.23;;;1.50;;
3085;SDS011;52812;48.960;9.108;2022-08-07T12:37:57;1.50;;;1.40;;
3085;SDS011;52812;48.960;9.108;2022-08-07T12:40:24;3.23;;;1.40;;
3085;SDS011;52812;48.960;9.108;2022-08-07T12:42:53;3.70;;;1.50;;
3085;SDS011;52812;48.960;9.108;2022-08-07T12:45:25;1.40;;;1.30;;
3085;SDS011;52812;48.960;9.108;2022-08-07T12:48:03;2.10;;;1.40;;
3085;SDS011;52812;48.960;9.108;2022-08-07T12:50:51;2.40;;;1.50;;
3085;SDS011;52812;48.960;9.108;2022-08-07T12:56:07;1.97;;;1.53;;
3085;SDS011;52812;48.960;9.108;2022-08-07T12:58:41;1.60;;;1.50;;
3085;SDS011;52812;48.960;9.108;2022-08-07T13:04:24;1.57;;;1.47;;
3085;SDS011;52812;48.960;9.108;2022-08-07T13:07:19;1.40;;;1.30;;
3085;SDS011;52812;48.960;9.108;2022-08-07T13:12:55;1.40;;;1.30;;
3085;SDS011;52812;48.960;9.108;2022-08-07T13:18:42;2.03;;;1.43;;
3085;SDS011;52812;48.960;9.108;2022-08-07T13:21:28;2.30;;;1.40;;
3085;SDS011;52812;48.960;9.108;2022-08-07T13:26:38;2.23;;;1.70;;
3085;SDS011;52812;48.960;9.108;2022-08-07T13:31:38;1.40;;;1.30;;
3085;SDS011;52812;48.960;9.108;2022-08-07T13:34:13;1.83;;;1.30;;
3085;SDS011;52812;48.960;9.108;2022-08-07T13:36:56;1.53;;;1.33;;
3085;SDS011;52812;48.960;9.108;2022-08-07T13:39:44;2.27;;;1.40;;
3085;SDS011;52812;48.960;9.108;2022-08-07T13:42:29;1.37;;;1.27;;
3085;SDS011;52812;48.960;9.108;2022-08-07T13:44:56;1.63;;;1.53;;
3085;SDS011;52812;48.960;9.108;2022-08-07T13:47:25;1.40;;;1.30;;
3085;SDS011;52812;48.960;9.108;2022-08-07T13:49:53;2.40;;;1.60;;
3085;SDS011;52812;48.960;9.108;2022-08-07T13:52:23;1.53;;;1.43;;
3085;SDS011;52812;48.960;9.108;2022-08-07T13:54:51;1.47;;;1.37;;
3085;SDS011;52812;48.960;9.108;2022-08-07T13:57:21;1.50;;;1.40;;
3085;SDS011;52812;48.960;9.108;2022-08-07T13:59:51;2.23;;;1.57;;
3085;SDS011;52812;48.960;9.108;2022-08-07T14:02:26;1.60;;;1.50;;
3085;SDS011;52812;48.960;9.108;2022-08-07T14:05:05;1.67;;;1.50;;
3085;SDS011;52812;48.960;9.108;2022-08-07T14:07:37;1.60;;;1.50;;
3085;SDS011;52812;48.960;9.108;2022-08-07T14:10:06;1.40;;;1.30;;
3085;SDS011;52812;48.960;9.108;2022-08-07T14:15:04;1.57;;;1.47;;
3085;SDS011;52812;48.960;9.108;2022-08-07T14:17:37;1.50;;;1.30;;
3085;SDS011;52812;48.960;9.108;2022-08-07T14:20:09;1.57;;;1.43;;
3085;SDS011;52812;48.960;9.108;2022-08-07T14:22:35;1.50;;;1.40;;
3085;SDS011;52812;48.960;9.108;2022-08-07T14:25:09;1.63;;;1.53;;
3085;SDS011;52812;48.960;9.108;2022-08-07T14:27:40;1.40;;;1.30;;
3085;SDS011;52812;48.960;9.108;2022-08-07T14:30:10;1.90;;;1.60;;
3085;SDS011;52812;48.960;9.108;2022-08-07T14:32:44;1.60;;;1.50;;
3085;SDS011;52812;48.960;9.108;2022-08-07T14:35:21;1.50;;;1.40;;
3085;SDS011;52812;48.960;9.108;2022-08-07T14:37:52;1.63;;;1.43;;
3085;SDS011;52812;48.960;9.108;2022-08-07T14:40:27;1.60;;;1.50;;
3085;SDS011;52812;48.960;9.108;2022-08-07T14:43:04;3.33;;;1.60;;
3085;SDS011;52812;48.960;9.108;2022-08-07T14:45:42;2.77;;;1.67;;
3085;SDS011;52812;48.960;9.108;2022-08-07T14:48:29;1.87;;;1.37;;
3085;SDS011;52812;48.960;9.108;2022-08-07T14:51:00;2.40;;;1.50;;
3085;SDS011;52812;48.960;9.108;2022-08-07T14:53:43;1.57;;;1.30;;
3085;SDS011;52812;48.960;9.108;2022-08-07T14:56:13;1.60;;;1.50;;
3085;SDS011;52812;48.960;9.108;2022-08-07T14:58:47;1.60;;;1.50;;
3085;SDS011;52812;48.960;9.108;2022-08-07T15:01:15;1.70;;;1.60;;
3085;SDS011;52812;48.960;9.108;2022-08-07T15:03:43;1.73;;;1.53;;
3085;SDS011;52812;48.960;9.108;2022-08-07T15:06:10;3.47;;;1.60;;
3085;SDS011;52812;48.960;9.108;2022-08-07T15:08:40;1.50;;;1.40;;
3085;SDS011;52812;48.960;9.108;2022-08-07T15:11:11;1.73;;;1.63;;
3085;SDS011;52812;48.960;9.108;2022-08-07T15:13:53;1.77;;;1.67;;
3085;SDS011;52812;48.960;9.108;2022-08-07T15:16:23;1.53;;;1.43;;
3085;SDS011;52812;48.960;9.108;2022-08-07T15:18:59;1.43;;;1.30;;
3085;SDS011;52812;48.960;9.108;2022-08-07T15:21:27;1.50;;;1.40;;
3085;SDS011;52812;48.960;9.108;2022-08-07T15:23:58;1.63;;;1.50;;
3085;SDS011;52812;48.960;9.108;2022-08-07T15:26:37;1.50;;;1.40;;
3085;SDS011;52812;48.960;9.108;2022-08-07T15:29:07;1.93;;;1.30;;
3085;SDS011;52812;48.960;9.108;2022-08-07T15:31:35;1.60;;;1.50;;
3085;SDS011;52812;48.960;9.108;2022-08-07T15:34:01;1.90;;;1.60;;
3085;SDS011;52812;48.960;9.108;2022-08-07T15:36:29;1.70;;;1.60;;
3085;SDS011;52812;48.960;9.108;2022-08-07T15:39:00;1.73;;;1.63;;
3085;SDS011;52812;48.960;9.108;2022-08-07T15:41:31;1.50;;;1.40;;
3085;SDS011;52812;48.960;9.108;2022-08-07T15:44:11;1.60;;;1.50;;
3085;SDS011;52812;48.960;9.108;2022-08-07T15:46:39;1.63;;;1.53;;
3085;SDS011;52812;48.960;9.108;2022-08-07T15:49:09;1.67;;;1.57;;
3085;SDS011;52812;48.960;9.108;2022-08-07T15:51:39;1.73;;;1.63;;
3085;SDS011;52812;48.960;9.108;2022-08-07T15:54:07;2.07;;;1.80;;
3085;SDS011;52812;48.960;9.108;2022-08-07T15:56:35;1.60;;;1.50;;
3085;SDS011;52812;48.960;9.108;2022-08-07T15:59:03;1.80;;;1.40;;
3085;SDS011;52812;48.960;9.108;2022-08-07T16:01:38;2.23;;;1.67;;
3085;SDS011;52812;48.960;9.108;2022-08-07T16:04:12;1.43;;;1.33;;
3085;SDS011;52812;48.960;9.108;2022-08-07T16:06:41;1.40;;;1.30;;
3085;SDS011;52812;48.960;9.108;2022-08-07T16:09:10;2.13;;;1.70;;
3085;SDS011;52812;48.960;9.108;2022-08-07T16:14:58;1.50;;;1.40;;
3085;SDS011;52812;48.960;9.108;2022-08-07T16:17:46;1.57;;;1.47;;
3085;SDS011;52812;48.960;9.108;2022-08-07T16:20:42;2.20;;;1.60;;
3085;SDS011;52812;48.960;9.108;2022-08-07T16:36:56;1.83;;;1.73;;
3085;SDS011;52812;48.960;9.108;2022-08-07T16:51:19;1.77;;;1.63;;
3085;SDS011;52812;48.960;9.108;2022-08-07T16:56:38;1.80;;;1.70;;
3085;SDS011;52812;48.960;9.108;2022-08-07T17:07:36;1.90;;;1.70;;
3085;SDS011;52812;48.960;9.108;2022-08-07T17:21:20;1.80;;;1.70;;
3085;SDS011;52812;48.960;9.108;2022-08-07T17:26:17;1.70;;;1.60;;
3085;SDS011;52812;48.960;9.108;2022-08-07T17:31:55;2.00;;;1.77;;
3085;SDS011;52812;48.960;9.108;2022-08-07T17:34:28;1.60;;;1.50;;
3085;SDS011;52812;48.960;9.108;2022-08-07T17:37:03;2.23;;;1.63;;
3085;SDS011;52812;48.960;9.108;2022-08-07T17:42:10;1.57;;;1.43;;
3085;SDS011;52812;48.960;9.108;2022-08-07T17:44:53;1.60;;;1.47;;
3085;SDS011;52812;48.960;9.108;2022-08-07T17:47:27;1.87;;;1.77;;
3085;SDS011;52812;48.960;9.108;2022-08-07T17:56:00;1.57;;;1.47;;
3085;SDS011;52812;48.960;9.108;2022-08-07T18:04:25;1.80;;;1.70;;
3085;SDS011;52812;48.960;9.108;2022-08-07T18:06:58;1.40;;;1.30;;
3085;SDS011;52812;48.960;9.108;2022-08-07T18:09:37;1.73;;;1.63;;
3085;SDS011;52812;48.960;9.108;2022-08-07T18:12:12;1.60;;;1.50;;
3085;SDS011;52812;48.960;9.108;2022-08-07T18:15:02;1.73;;;1.43;;
3085;SDS011;52812;48.960;9.108;2022-08-07T18:17:36;1.73;;;1.63;;
3085;SDS011;52812;48.960;9.108;2022-08-07T18:20:18;1.90;;;1.57;;
3085;SDS011;52812;48.960;9.108;2022-08-07T18:25:30;7.13;;;1.70;;
3085;SDS011;52812;48.960;9.108;2022-08-07T18:28:10;1.63;;;1.53;;
3085;SDS011;52812;48.960;9.108;2022-08-07T18:53:27;1.67;;;1.57;;
3085;SDS011;52812;48.960;9.108;2022-08-07T18:58:50;2.20;;;1.80;;
3085;SDS011;52812;48.960;9.108;2022-08-07T19:04:20;1.70;;;1.60;;
3085;SDS011;52812;48.960;9.108;2022-08-07T19:06:53;3.17;;;1.87;;
3085;SDS011;52812;48.960;9.108;2022-08-07T19:09:30;1.80;;;1.70;;
3085;SDS011;52812;48.960;9.108;2022-08-07T19:12:06;2.33;;;1.93;;
3085;SDS011;52812;48.960;9.108;2022-08-07T19:17:23;3.63;;;2.10;;
3085;SDS011;52812;48.960;9.108;2022-08-07T19:20:11;1.70;;;1.60;;
3085;SDS011;52812;48.960;9.108;2022-08-07T19:25:25;1.90;;;1.70;;
3085;SDS011;52812;48.960;9.108;2022-08-07T19:27:51;5.30;;;1.80;;
3085;SDS011;52812;48.960;9.108;2022-08-07T19:30:19;2.17;;;2.00;;
3085;SDS011;52812;48.960;9.108;2022-08-07T19:32:47;1.90;;;1.67;;
3085;SDS011;52812;48.960;9.108;2022-08-07T19:35:22;1.90;;;1.80;;
3085;SDS011;52812;48.960;9.108;2022-08-07T19:37:55;2.00;;;1.80;;
3085;SDS011;52812;48.960;9.108;2022-08-07T19:40:24;1.77;;;1.63;;
3085;SDS011;52812;48.960;9.108;2022-08-07T19:42:51;1.90;;;1.80;;